Time;durP1;ratioP1;P1;durP2;ratioP2;P2;SDS_P1;SDS_P2;PMS_P1;PMS_P2;Temp;Humidity;BMP_temperature;BMP_pressure;BME280_temperature;BME280_humidity;BME280_pressure;Samples;Min_cycle;Max_cycle;Signal;HPM_P1;HPM_P2
2023/12/09 00:01:49;;;;;;;17.70;3.85;;;9.60;99.90;;;8.93;100.00;100739.31;4153646;28;20568;-80
2023/12/09 00:03:50;;;;;;;21.60;4.13;;;9.60;99.90;;;8.89;100.00;100726.44;4153578;28;20037;-81
2023/12/09 00:05:51;;;;;;;21.33;3.80;;;9.60;99.90;;;8.87;100.00;100720.47;4145502;28;20028;-80
2023/12/09 00:07:52;;;;;;;15.05;4.50;;;9.60;99.90;;;8.81;100.00;100715.00;4153655;28;20029;-80
2023/12/09 00:09:53;;;;;;;19.17;4.47;;;9.60;99.90;;;8.84;100.00;100712.88;4154376;28;20068;-81
2023/12/09 00:11:54;;;;;;;17.55;3.33;;;9.60;99.90;;;8.82;100.00;100696.41;4153499;28;20065;-80
2023/12/09 00:13:55;;;;;;;23.85;4.57;;;9.60;99.90;;;8.83;100.00;100692.81;4154530;28;20029;-80
2023/12/09 00:15:56;;;;;;;18.50;4.47;;;9.60;99.90;;;8.83;100.00;100692.81;4145184;28;20050;-80
2023/12/09 00:17:56;;;;;;;22.05;4.50;;;9.60;99.90;;;8.89;100.00;100684.34;4154555;28;20029;-81
2023/12/09 00:19:59;;;;;;;25.67;4.38;;;9.70;99.90;;;8.96;100.00;100687.19;4153120;28;20057;-80
2023/12/09 00:21:59;;;;;;;27.90;4.40;;;9.60;99.90;;;8.95;100.00;100661.88;4153217;28;20425;-80
2023/12/09 00:24:01;;;;;;;28.05;3.83;;;9.70;99.90;;;8.98;100.00;100648.44;4154470;28;20037;-80
2023/12/09 00:26:03;;;;;;;27.88;4.13;;;9.70;99.90;;;8.97;100.00;100638.03;4147219;28;20505;-80
2023/12/09 00:28:04;;;;;;;27.55;4.95;;;9.70;99.90;;;8.99;100.00;100620.31;4154361;28;20030;-81
2023/12/09 00:30:07;;;;;;;24.25;4.85;;;9.70;99.90;;;9.07;100.00;100620.41;4136919;28;20668;-80
2023/12/09 00:32:08;;;;;;;24.52;4.63;;;9.80;99.90;;;9.04;100.00;100610.19;4153222;28;20567;-81
2023/12/09 00:34:09;;;;;;;35.15;4.82;;;9.80;99.90;;;9.09;100.00;100614.00;4154362;28;20022;-80
2023/12/09 00:36:10;;;;;;;31.02;4.60;;;9.80;99.90;;;9.14;100.00;100621.47;4149504;28;20037;-81
2023/12/09 00:38:11;;;;;;;27.02;3.42;;;9.80;99.90;;;9.11;100.00;100603.34;4154238;28;20022;-81
2023/12/09 00:40:12;;;;;;;21.20;4.10;;;9.90;99.90;;;9.17;100.00;100618.53;4153178;28;20420;-81
2023/12/09 00:42:13;;;;;;;20.20;3.45;;;9.80;99.90;;;9.17;100.00;100615.91;4152565;28;20025;-81
2023/12/09 00:44:17;;;;;;;17.92;4.47;;;9.90;99.90;;;9.17;100.00;100616.72;4152197;28;20430;-81
2023/12/09 00:46:17;;;;;;;28.27;4.22;;;9.90;99.90;;;9.14;100.00;100606.47;4153020;28;20029;-81
2023/12/09 00:48:18;;;;;;;26.45;4.30;;;9.90;99.90;;;9.28;100.00;100623.56;4154164;28;20413;-80
2023/12/09 00:50:19;;;;;;;25.73;4.60;;;9.90;99.90;;;9.31;100.00;100625.91;4153950;28;20026;-81
2023/12/09 00:52:20;;;;;;;31.38;4.53;;;9.90;99.90;;;9.32;100.00;100619.63;4153410;28;20034;-81
2023/12/09 00:54:21;;;;;;;27.95;4.35;;;10.00;99.90;;;9.30;100.00;100622.44;4153378;28;20038;-80
2023/12/09 00:56:22;;;;;;;24.55;5.65;;;10.00;99.90;;;9.33;100.00;100610.78;4140509;28;20037;-81
2023/12/09 00:58:22;;;;;;;18.05;4.13;;;10.10;99.90;;;9.35;100.00;100599.13;4153960;28;20018;-81
2023/12/09 01:00:25;;;;;;;24.42;4.30;;;10.10;99.90;;;9.39;100.00;100594.38;4152270;28;20029;-81
2023/12/09 01:02:26;;;;;;;23.00;4.60;;;10.10;99.90;;;9.41;100.00;100576.63;4153719;28;20108;-81
2023/12/09 01:04:27;;;;;;;24.05;3.60;;;10.20;99.90;;;9.46;100.00;100571.75;4152930;28;20041;-81
2023/12/09 01:06:29;;;;;;;23.67;3.95;;;10.20;99.90;;;9.51;100.00;100572.09;4143169;28;20029;-80
2023/12/09 01:08:30;;;;;;;27.42;4.15;;;10.20;99.90;;;9.61;100.00;100583.38;4152572;28;20034;-81
2023/12/09 01:10:30;;;;;;;31.02;5.22;;;10.30;99.90;;;9.64;100.00;100583.06;4153649;28;20021;-81
2023/12/09 01:12:31;;;;;;;22.63;5.65;;;10.30;99.90;;;9.68;100.00;100589.66;4153788;28;20036;-80
2023/12/09 01:14:32;;;;;;;33.95;6.05;;;10.30;99.90;;;9.60;100.00;100560.66;4153706;28;20026;-81
2023/12/09 01:16:33;;;;;;;28.30;4.72;;;10.40;99.90;;;9.74;100.00;100573.25;4152281;28;20105;-82
2023/12/09 01:18:34;;;;;;;34.92;5.22;;;10.40;99.90;;;9.75;100.00;100569.63;4153528;28;20552;-82
2023/12/09 01:20:35;;;;;;;24.00;4.18;;;10.40;99.90;;;9.77;100.00;100572.94;4153354;28;20026;-81
2023/12/09 01:22:36;;;;;;;26.95;4.00;;;10.40;99.90;;;9.78;100.00;100564.06;4153575;28;20551;-81
2023/12/09 01:24:37;;;;;;;29.45;4.93;;;10.40;99.90;;;9.76;100.00;100544.97;4152215;28;20456;-81
2023/12/09 01:26:37;;;;;;;34.60;4.35;;;10.50;99.90;;;9.80;100.00;100541.00;4152269;28;20065;-81
2023/12/09 01:28:38;;;;;;;26.92;4.13;;;10.50;99.90;;;9.84;100.00;100547.63;4136244;28;20026;-81
2023/12/09 01:30:39;;;;;;;31.40;4.40;;;10.60;99.90;;;9.87;100.00;100552.59;4153232;28;20033;-81
2023/12/09 01:32:40;;;;;;;25.98;4.90;;;10.50;99.90;;;9.87;100.00;100542.06;4152253;28;20034;-81
2023/12/09 01:34:41;;;;;;;31.60;4.65;;;10.60;99.90;;;9.95;100.00;100544.72;4144009;28;20030;-82
2023/12/09 01:36:42;;;;;;;29.20;5.65;;;10.60;99.90;;;9.91;100.00;100537.31;4151154;28;20041;-82
2023/12/09 01:38:43;;;;;;;32.47;5.38;;;10.70;99.90;;;9.94;100.00;100523.81;4153531;28;20026;-81
2023/12/09 01:40:44;;;;;;;34.35;5.93;;;10.70;99.90;;;10.01;100.00;100520.38;4152289;28;20025;-81
2023/12/09 01:42:44;;;;;;;30.88;5.05;;;10.70;99.90;;;10.14;100.00;100541.06;4152206;28;20025;-81
2023/12/09 01:44:45;;;;;;;36.28;5.68;;;10.70;99.90;;;10.14;100.00;100533.16;4153068;28;20500;-81
2023/12/09 01:46:47;;;;;;;25.20;3.83;;;10.80;99.90;;;10.16;100.00;100517.16;4152085;28;20026;-82
2023/12/09 01:48:48;;;;;;;25.45;4.90;;;10.80;99.90;;;10.17;100.00;100513.56;4151879;28;20495;-81
2023/12/09 01:50:50;;;;;;;25.77;4.82;;;10.80;99.90;;;10.19;100.00;100495.75;4151764;28;20024;-81
2023/12/09 01:52:51;;;;;;;33.13;4.57;;;10.80;99.90;;;10.20;100.00;100474.53;4152350;28;20560;-81
2023/12/09 01:54:52;;;;;;;37.42;5.25;;;10.80;99.90;;;10.23;100.00;100478.66;4152800;28;20559;-81
2023/12/09 01:56:55;;;;;;;35.67;4.85;;;10.80;99.90;;;10.25;100.00;100455.59;4153228;28;20026;-81
2023/12/09 01:58:56;;;;;;;41.60;6.22;;;10.90;99.90;;;10.31;100.00;100461.03;4151854;28;20537;-81
2023/12/09 02:00:57;;;;;;;43.63;5.57;;;11.00;99.90;;;10.38;100.00;100463.88;4151790;28;20068;-81
2023/12/09 02:02:58;;;;;;;37.55;6.18;;;10.90;99.90;;;10.39;100.00;100455.00;4151902;28;20105;-80
2023/12/09 02:05:01;;;;;;;31.00;4.63;;;11.00;99.90;;;10.42;100.00;100455.47;4152942;28;20045;-81
2023/12/09 02:07:02;;;;;;;29.00;5.63;;;11.00;99.90;;;10.41;100.00;100442.44;4167938;28;20021;-81
2023/12/09 02:09:03;;;;;;;26.85;3.70;;;11.00;99.90;;;10.47;100.00;100457.63;4151568;28;20104;-81
2023/12/09 02:11:25;;;;;;;29.75;5.30;;;11.10;99.90;;;10.45;100.00;100444.59;4153102;28;20116;-81
2023/12/09 02:13:39;;;;;;;20.73;3.65;;;11.10;99.90;;;10.40;100.00;100422.34;4152817;28;20060;-82
2023/12/09 02:15:52;;;;;;;27.52;3.15;;;11.10;99.90;;;10.44;100.00;100432.41;4151848;28;20026;-82
2023/12/09 02:18:01;;;;;;;26.50;4.38;;;11.10;99.90;;;10.44;100.00;100427.13;4151681;28;20037;-81
2023/12/09 02:20:03;;;;;;;26.42;3.95;;;11.10;99.90;;;10.47;100.00;100428.63;4151320;28;20052;-81
2023/12/09 02:22:08;;;;;;;31.30;3.58;;;11.10;99.90;;;10.53;100.00;100422.69;4152551;28;20026;-82
2023/12/09 02:24:09;;;;;;;15.43;2.63;;;11.10;99.90;;;10.48;100.00;100411.81;4151288;28;20124;-81
2023/12/09 02:26:23;;;;;;;24.63;3.70;;;11.10;99.90;;;10.49;100.00;100410.81;4151469;28;20041;-81
2023/12/09 02:28:28;;;;;;;27.35;3.83;;;11.20;99.90;;;10.49;100.00;100406.38;4151730;28;20026;-82
2023/12/09 02:30:50;;;;;;;19.48;2.78;;;11.20;99.90;;;10.45;100.00;100388.41;4151368;28;20034;-81
2023/12/09 02:32:55;;;;;;;13.45;2.70;;;11.10;99.90;;;10.45;100.00;100380.50;4145972;28;20040;-81
2023/12/09 02:34:58;;;;;;;24.80;3.72;;;11.10;99.90;;;10.49;100.00;100385.28;4151151;28;20067;-82
2023/12/09 02:37:00;;;;;;;23.23;3.75;;;11.10;99.90;;;10.56;100.00;100396.00;4151414;28;20037;-81
2023/12/09 02:39:03;;;;;;;21.63;3.38;;;11.10;99.90;;;10.50;100.00;100381.66;4151181;28;20022;-80
2023/12/09 02:41:06;;;;;;;13.13;3.17;;;11.20;99.90;;;10.54;100.00;100376.88;4135371;28;20084;-81
2023/12/09 02:43:08;;;;;;;23.75;3.22;;;11.20;99.90;;;10.54;100.00;100361.06;4152338;28;20034;-81
2023/12/09 02:45:11;;;;;;;18.60;3.03;;;11.20;99.90;;;10.47;100.00;100345.06;4151408;28;20112;-81
2023/12/09 02:47:15;;;;;;;22.35;3.78;;;11.20;99.90;;;10.52;100.00;100337.47;4146784;28;20176;-81
2023/12/09 02:49:15;;;;;;;20.83;2.83;;;11.20;99.90;;;10.50;100.00;100342.09;4152636;28;20401;-81
2023/12/09 02:51:16;;;;;;;16.80;2.65;;;11.10;99.90;;;10.47;100.00;100323.16;4151022;28;20026;-81
2023/12/09 02:53:17;;;;;;;22.75;3.38;;;11.10;99.90;;;10.47;100.00;100318.69;4152365;28;20037;-81
2023/12/09 02:55:18;;;;;;;17.70;3.22;;;11.20;99.90;;;10.57;100.00;100334.34;4152329;28;20033;-80
2023/12/09 02:57:19;;;;;;;18.60;2.65;;;11.20;99.90;;;10.50;100.00;100328.09;4151265;28;20026;-81
2023/12/09 02:59:20;;;;;;;22.70;3.75;;;11.20;99.90;;;10.53;100.00;100319.84;4152333;28;20473;-81
2023/12/09 03:01:20;;;;;;;17.42;2.40;;;11.20;99.90;;;10.57;100.00;100306.16;4167723;28;20033;-80
2023/12/09 03:03:21;;;;;;;13.90;1.92;;;11.20;99.90;;;10.65;100.00;100331.72;4152323;28;20033;-81
2023/12/09 03:05:22;;;;;;;20.30;2.75;;;11.20;99.90;;;10.66;100.00;100322.81;4150859;28;20033;-80
2023/12/09 03:07:23;;;;;;;19.35;2.70;;;11.20;99.90;;;10.64;100.00;100302.84;4153850;28;20026;-80
2023/12/09 03:09:24;;;;;;;22.27;2.65;;;11.30;99.90;;;10.66;100.00;100301.72;4154490;28;20038;-80
2023/12/09 03:11:25;;;;;;;13.15;2.83;;;11.30;99.90;;;10.73;100.00;100302.66;4155835;28;20037;-80
2023/12/09 03:13:26;;;;;;;19.85;1.83;;;11.30;99.90;;;10.70;100.00;100297.72;4155523;28;20508;-80
2023/12/09 03:15:27;;;;;;;11.95;1.55;;;11.40;99.90;;;10.73;100.00;100294.75;4155256;28;20026;-80
2023/12/09 03:17:28;;;;;;;8.82;3.05;;;11.40;99.90;;;10.83;100.00;100291.94;4154198;28;20466;-81
2023/12/09 03:19:29;;;;;;;10.85;2.47;;;11.40;99.90;;;10.87;100.00;100288.78;4154150;28;20030;-80
2023/12/09 03:21:30;;;;;;;12.15;2.33;;;11.50;99.90;;;10.87;100.00;100274.78;4144703;28;20457;-80
2023/12/09 03:23:31;;;;;;;9.20;1.48;;;11.50;99.90;;;10.86;100.00;100263.41;4153216;28;20033;-80
2023/12/09 03:25:32;;;;;;;6.75;1.40;;;11.50;99.90;;;10.90;100.00;100259.41;4155553;28;20014;-81
2023/12/09 03:27:33;;;;;;;12.75;1.48;;;11.50;99.90;;;11.00;100.00;100257.41;4154197;28;20056;-81
2023/12/09 03:29:36;;;;;;;7.05;1.67;;;11.50;99.90;;;10.89;100.00;100233.22;4155451;28;20030;-80
2023/12/09 03:31:41;;;;;;;9.13;1.02;;;11.60;99.90;;;10.93;100.00;100227.41;4155074;28;20030;-80
2023/12/09 03:33:42;;;;;;;5.90;0.90;;;11.60;99.90;;;10.91;100.00;100224.13;4154245;28;20570;-81
2023/12/09 03:35:43;;;;;;;6.32;1.20;;;11.60;99.90;;;10.93;100.00;100216.84;4155036;28;20026;-81
2023/12/09 03:37:44;;;;;;;9.73;1.50;;;11.60;99.90;;;10.97;100.00;100209.41;4154116;28;20045;-81
2023/12/09 03:39:45;;;;;;;5.55;1.23;;;11.60;99.90;;;10.96;100.00;100186.69;4153988;28;20165;-80
2023/12/09 03:41:46;;;;;;;11.77;1.10;;;11.60;99.90;;;11.02;100.00;100181.53;4155255;28;20440;-81
2023/12/09 03:43:47;;;;;;;6.22;1.10;;;11.60;99.90;;;11.07;100.00;100188.94;4153815;28;20022;-81
2023/12/09 03:45:47;;;;;;;5.25;1.00;;;11.60;99.90;;;11.11;100.00;100188.41;4153938;28;20072;-81
2023/12/09 03:47:48;;;;;;;7.68;0.70;;;11.70;99.90;;;11.10;100.00;100173.59;4153914;28;20033;-81
2023/12/09 03:49:49;;;;;;;7.15;1.77;;;11.70;99.90;;;11.13;100.00;100163.66;4153873;28;20543;-81
2023/12/09 03:51:50;;;;;;;3.63;0.80;;;11.70;99.90;;;11.10;100.00;100136.63;4154514;28;20068;-81
2023/12/09 03:53:51;;;;;;;7.53;1.17;;;11.70;99.90;;;11.15;100.00;100133.44;4153936;28;20026;-81
2023/12/09 03:55:52;;;;;;;5.22;1.08;;;11.70;99.90;;;11.15;100.00;100132.63;4153646;28;20084;-81
2023/12/09 03:57:53;;;;;;;7.30;0.85;;;11.80;99.90;;;11.23;100.00;100129.97;4153738;28;20065;-81
2023/12/09 03:59:54;;;;;;;4.63;0.80;;;11.80;99.90;;;11.30;100.00;100152.00;4153970;28;20030;-81
2023/12/09 04:01:54;;;;;;;5.05;0.70;;;11.80;99.90;;;11.33;100.00;100143.72;4154829;28;20097;-81
2023/12/09 04:03:55;;;;;;;4.82;0.80;;;11.80;99.90;;;11.25;100.00;100125.31;4154782;28;20030;-81
2023/12/09 04:05:56;;;;;;;3.95;0.55;;;11.90;99.90;;;11.26;100.00;100124.31;4153232;28;20022;-81
2023/12/09 04:07:57;;;;;;;1.20;0.30;;;11.90;99.90;;;11.32;100.00;100113.06;4169995;28;20089;-81
2023/12/09 04:09:58;;;;;;;4.40;0.50;;;11.90;99.90;;;11.32;100.00;100110.41;4153428;28;20033;-80
2023/12/09 04:12:00;;;;;;;5.97;0.93;;;11.90;99.90;;;11.31;100.00;100095.56;4151603;28;20022;-82
2023/12/09 04:14:00;;;;;;;1.95;0.40;;;11.90;99.90;;;11.33;100.00;100080.34;4153296;28;20446;-81
2023/12/09 04:16:02;;;;;;;3.78;0.28;;;11.90;99.90;;;11.38;100.00;100093.88;4152241;28;20065;-81
2023/12/09 04:18:03;;;;;;;1.75;0.40;;;12.00;99.90;;;11.32;100.00;100070.81;4146438;28;20041;-80
2023/12/09 04:20:07;;;;;;;2.40;0.35;;;12.00;99.90;;;11.36;100.00;100074.72;4154416;28;20026;-81
2023/12/09 04:22:08;;;;;;;2.80;0.30;;;12.00;99.90;;;11.46;100.00;100062.09;4153233;28;20014;-81
2023/12/09 04:24:08;;;;;;;0.85;0.15;;;12.00;99.90;;;11.37;100.00;100058.72;4154424;28;20030;-81
2023/12/09 04:26:09;;;;;;;2.08;0.20;;;12.00;99.90;;;11.38;100.00;100068.25;4154434;28;20108;-81
2023/12/09 04:28:11;;;;;;;2.38;0.57;;;12.00;99.90;;;11.42;100.00;100048.44;4153802;28;20038;-81
2023/12/09 04:30:12;;;;;;;2.97;0.20;;;12.00;99.90;;;11.41;100.00;100048.63;4154207;28;20034;-80
2023/12/09 04:32:13;;;;;;;1.58;0.30;;;12.00;99.90;;;11.46;100.00;100030.41;4153293;28;20038;-82
2023/12/09 04:34:14;;;;;;;3.10;0.50;;;12.00;99.90;;;11.41;100.00;100030.16;4153315;28;20174;-81
2023/12/09 04:36:15;;;;;;;5.07;0.47;;;12.00;99.90;;;11.42;100.00;100032.59;4152857;28;20093;-82
2023/12/09 04:38:16;;;;;;;1.45;0.28;;;12.00;99.90;;;11.44;100.00;100022.66;4152980;28;20018;-81
2023/12/09 04:40:17;;;;;;;1.45;0.40;;;12.00;99.90;;;11.49;100.00;100033.53;4153045;28;20061;-82
2023/12/09 04:42:19;;;;;;;3.17;0.30;;;12.00;99.90;;;11.43;100.00;100038.69;4154226;28;20025;-81
2023/12/09 04:44:23;;;;;;;3.35;0.40;;;12.00;99.90;;;11.42;100.00;100008.81;4154188;28;20030;-81
2023/12/09 04:46:23;;;;;;;1.85;0.93;;;12.00;99.90;;;11.47;100.00;100003.81;4152861;28;20101;-81
2023/12/09 04:48:25;;;;;;;3.40;0.40;;;12.10;99.90;;;11.43;100.00;99994.63;4152990;28;20429;-81
2023/12/09 04:50:26;;;;;;;2.15;0.30;;;12.10;99.90;;;11.43;100.00;99984.06;4153891;28;20041;-81
2023/12/09 04:52:26;;;;;;;4.07;0.40;;;12.00;99.90;;;11.43;100.00;99980.59;4153420;28;20410;-81
2023/12/09 04:54:27;;;;;;;0.90;0.20;;;12.10;99.90;;;11.43;100.00;99981.44;4150547;28;20030;-82
2023/12/09 04:56:29;;;;;;;2.17;0.45;;;12.10;99.90;;;11.51;100.00;99973.41;4169297;28;20571;-81
2023/12/09 04:58:30;;;;;;;1.50;0.30;;;12.10;99.90;;;11.46;100.00;99973.16;4153971;28;20021;-82
2023/12/09 05:00:31;;;;;;;2.03;0.20;;;12.10;99.90;;;11.47;100.00;99984.50;4153653;28;20026;-82
2023/12/09 05:02:32;;;;;;;2.40;0.30;;;12.10;99.90;;;11.52;100.00;99984.81;4152442;28;20054;-82
2023/12/09 05:04:33;;;;;;;2.45;0.40;;;12.10;99.90;;;11.52;100.00;99980.34;4153724;28;20053;-81
2023/12/09 05:06:34;;;;;;;2.55;0.77;;;12.10;99.90;;;11.61;100.00;99989.00;4153848;28;20030;-82
2023/12/09 05:08:34;;;;;;;1.35;0.30;;;12.10;99.90;;;11.64;100.00;99986.00;4153842;28;20156;-81
2023/12/09 05:10:35;;;;;;;1.90;0.47;;;12.20;99.90;;;11.68;100.00;99986.47;4153692;28;20033;-82
2023/12/09 05:12:36;;;;;;;1.77;0.57;;;12.20;99.90;;;11.62;100.00;99967.69;4153827;28;20030;-82
2023/12/09 05:14:37;;;;;;;2.90;0.50;;;12.10;99.90;;;11.67;100.00;99983.00;4153729;28;20034;-81
2023/12/09 05:16:38;;;;;;;3.95;0.60;;;12.20;99.90;;;11.68;100.00;99969.59;4153604;28;20068;-82
2023/12/09 05:18:39;;;;;;;4.13;0.30;;;12.20;99.90;;;11.76;100.00;99968.72;4153537;28;20029;-81
2023/12/09 05:20:39;;;;;;;1.13;0.30;;;12.20;99.90;;;11.75;100.00;99960.97;4153633;28;20037;-82
2023/12/09 05:22:40;;;;;;;3.78;0.40;;;12.30;99.90;;;11.69;100.00;99949.28;4153586;28;20026;-81
2023/12/09 05:24:42;;;;;;;1.30;0.52;;;12.30;99.90;;;11.78;100.00;99950.88;4152315;28;20037;-82
2023/12/09 05:26:43;;;;;;;2.47;0.38;;;12.30;99.90;;;11.84;100.00;99949.31;4152203;28;20026;-82
2023/12/09 05:28:44;;;;;;;1.08;0.28;;;12.30;99.90;;;11.86;100.00;99948.13;4152882;28;20052;-82
2023/12/09 05:30:45;;;;;;;2.28;0.40;;;12.40;99.90;;;11.82;100.00;99936.28;4153317;28;20030;-81
2023/12/09 05:32:46;;;;;;;3.03;0.85;;;12.40;99.90;;;11.88;100.00;99925.00;4153621;28;20034;-82
2023/12/09 05:34:46;;;;;;;3.28;0.32;;;12.50;99.90;;;11.96;100.00;99927.53;4143003;28;20556;-82
2023/12/09 05:36:47;;;;;;;2.20;0.60;;;12.50;99.90;;;12.02;100.00;99929.41;4152192;28;20041;-83
2023/12/09 05:38:48;;;;;;;2.85;0.60;;;12.60;99.90;;;12.10;100.00;99928.47;4153477;28;20056;-81
2023/12/09 05:40:49;;;;;;;2.90;0.38;;;12.60;99.90;;;12.14;100.00;99935.06;4153370;28;20501;-82
2023/12/09 05:42:50;;;;;;;2.70;0.40;;;12.60;99.90;;;12.25;100.00;99937.19;4153232;28;20033;-81
2023/12/09 05:44:51;;;;;;;3.72;0.68;;;12.70;99.90;;;12.31;100.00;99923.25;4151819;28;20038;-82
2023/12/09 05:46:51;;;;;;;1.60;0.30;;;12.80;99.90;;;12.40;100.00;99927.41;4152139;28;20029;-82
2023/12/09 05:48:52;;;;;;;2.85;0.60;;;12.80;99.90;;;12.42;100.00;99911.38;4153342;28;20104;-81
2023/12/09 05:50:53;;;;;;;1.98;0.70;;;12.90;99.90;;;12.54;100.00;99902.75;4151768;28;20559;-82
2023/12/09 05:52:54;;;;;;;4.10;0.82;;;13.00;99.90;;;12.53;100.00;99892.34;4152366;28;20033;-81
2023/12/09 05:54:55;;;;;;;4.05;0.50;;;13.00;99.90;;;12.62;100.00;99891.19;4153342;28;20030;-81
2023/12/09 05:56:56;;;;;;;2.83;0.40;;;13.10;99.90;;;12.70;100.00;99889.25;4152032;28;20040;-82
2023/12/09 05:58:56;;;;;;;2.95;0.40;;;13.20;99.90;;;12.72;100.00;99892.50;4153367;28;20025;-82
2023/12/09 06:01:00;;;;;;;3.75;1.73;;;13.20;99.90;;;12.83;100.00;99880.59;4152904;28;20048;-81
2023/12/09 06:03:01;;;;;;;7.40;0.88;;;13.30;99.90;;;12.85;100.00;99875.09;4151921;28;20065;-81
2023/12/09 06:05:02;;;;;;;8.93;0.90;;;13.40;99.90;;;12.95;100.00;99876.44;4151502;28;20033;-81
2023/12/09 06:07:04;;;;;;;6.22;0.60;;;13.40;99.90;;;13.01;100.00;99891.53;4152987;28;20068;-81
2023/12/09 06:09:05;;;;;;;3.72;1.23;;;13.50;99.90;;;13.10;100.00;99863.94;4140354;28;20038;-81
2023/12/09 06:11:06;;;;;;;4.75;1.70;;;13.60;99.90;;;13.17;100.00;99879.88;4152924;28;20378;-81
2023/12/09 06:13:06;;;;;;;6.38;1.13;;;13.60;99.90;;;13.18;100.00;99871.72;4151816;28;20029;-81
2023/12/09 06:15:08;;;;;;;7.85;0.90;;;13.70;99.90;;;13.26;100.00;99873.41;4151553;28;20033;-82
2023/12/09 06:17:09;;;;;;;6.28;1.08;;;13.80;99.90;;;13.22;100.00;99854.44;4152523;28;20050;-81
2023/12/09 06:19:10;;;;;;;5.07;0.88;;;13.80;99.90;;;13.21;100.00;99860.75;4152855;28;20387;-81
2023/12/09 06:21:22;;;;;;;12.02;1.42;;;13.80;99.90;;;13.30;100.00;99867.53;4152578;28;20030;-81
2023/12/09 06:23:23;;;;;;;8.10;1.40;;;13.80;99.90;;;13.32;100.00;99860.19;4152634;28;20029;-80
2023/12/09 06:25:24;;;;;;;14.38;2.00;;;13.80;99.90;;;13.32;100.00;99865.50;4152431;28;20413;-80
2023/12/09 06:27:25;;;;;;;8.60;1.45;;;13.90;99.90;;;13.40;100.00;99851.28;4151820;28;20030;-80
2023/12/09 06:29:28;;;;;;;14.52;2.75;;;13.90;99.90;;;13.36;100.00;99862.44;4152566;28;20072;-80
2023/12/09 06:31:29;;;;;;;13.55;2.92;;;13.90;99.90;;;13.42;100.00;99865.16;4152602;28;20026;-80
2023/12/09 06:33:30;;;;;;;17.13;2.60;;;13.90;99.90;;;13.53;100.00;99864.59;4151410;28;20029;-81
2023/12/09 06:35:30;;;;;;;17.42;2.38;;;14.00;99.90;;;13.46;100.00;99844.38;4147915;28;20022;-81
2023/12/09 06:37:31;;;;;;;12.23;2.50;;;14.00;99.90;;;13.45;100.00;99855.97;4151315;28;20030;-81
2023/12/09 06:39:32;;;;;;;19.70;3.35;;;14.00;99.90;;;13.40;100.00;99842.50;4152546;28;20022;-81
2023/12/09 06:41:33;;;;;;;13.38;2.17;;;14.00;99.90;;;13.41;100.00;99844.16;4152320;28;20033;-81
2023/12/09 06:43:34;;;;;;;19.08;2.22;;;13.90;99.90;;;13.43;100.00;99842.94;4152698;28;20026;-81
2023/12/09 06:45:34;;;;;;;13.20;1.95;;;14.00;99.90;;;13.41;100.00;99852.91;4151472;28;20041;-80
2023/12/09 06:47:35;;;;;;;15.05;2.97;;;14.00;99.90;;;13.53;100.00;99847.91;4152479;28;20401;-81
2023/12/09 06:49:36;;;;;;;14.25;2.85;;;14.00;99.90;;;13.44;100.00;99833.97;4152089;28;20053;-80
2023/12/09 06:51:40;;;;;;;13.90;3.20;;;14.00;99.90;;;13.48;100.00;99855.59;4151166;28;20026;-81
2023/12/09 06:53:42;;;;;;;19.90;3.97;;;14.00;99.90;;;13.52;100.00;99840.94;4151317;28;20029;-80
2023/12/09 06:55:43;;;;;;;13.02;2.22;;;14.00;99.90;;;13.60;100.00;99849.53;4152367;28;20084;-81
2023/12/09 06:57:44;;;;;;;13.43;1.77;;;14.00;99.90;;;13.53;100.00;99829.34;4152349;28;20073;-81
2023/12/09 06:59:45;;;;;;;12.98;1.92;;;14.10;99.90;;;13.54;100.00;99823.00;4152275;28;20026;-81
2023/12/09 07:01:49;;;;;;;10.10;1.60;;;14.10;99.90;;;13.53;100.00;99814.25;4151317;28;20521;-82
2023/12/09 07:03:50;;;;;;;11.88;1.60;;;14.10;99.90;;;13.59;100.00;99831.22;4152372;28;20021;-81
2023/12/09 07:05:51;;;;;;;10.18;1.23;;;14.10;99.90;;;13.59;100.00;99836.50;4150297;28;20030;-79
2023/12/09 07:07:52;;;;;;;6.63;0.82;;;14.10;99.90;;;13.64;100.00;99836.72;4152357;28;20026;-79
2023/12/09 07:09:55;;;;;;;7.55;1.05;;;14.10;99.90;;;13.59;100.00;99820.59;4148111;28;20019;-80
2023/12/09 07:11:56;;;;;;;7.90;1.30;;;14.10;99.90;;;13.57;100.00;99812.03;4151034;28;20417;-80
2023/12/09 07:13:57;;;;;;;9.50;1.30;;;14.20;99.90;;;13.62;100.00;99828.16;4152044;28;20269;-80
2023/12/09 07:15:58;;;;;;;5.85;1.08;;;14.10;99.90;;;13.69;100.00;99831.63;4152090;28;20409;-80
2023/12/09 07:17:59;;;;;;;7.10;0.88;;;14.20;99.90;;;13.65;100.00;99819.81;4151052;28;20029;-81
2023/12/09 07:20:00;;;;;;;7.25;0.95;;;14.10;99.90;;;13.62;100.00;99826.31;4145155;28;20030;-79
2023/12/09 07:22:03;;;;;;;6.95;0.80;;;14.20;99.90;;;13.60;100.00;99814.28;4150761;28;20033;-79
2023/12/09 07:24:04;;;;;;;5.88;0.73;;;14.20;99.90;;;13.61;100.00;99829.16;4152072;28;20438;-79
2023/12/09 07:26:06;;;;;;;6.10;0.75;;;14.20;99.90;;;13.64;100.00;99831.44;4152110;28;20060;-79
2023/12/09 07:28:07;;;;;;;3.22;1.08;;;14.10;99.90;;;13.67;100.00;99833.69;4152095;28;20026;-79
2023/12/09 07:30:08;;;;;;;5.85;0.68;;;14.20;99.90;;;13.61;100.00;99814.09;4134464;28;20506;-80
2023/12/09 07:32:09;;;;;;;3.28;0.60;;;14.10;99.90;;;13.68;100.00;99822.03;4134638;28;20026;-78
2023/12/09 07:34:16;;;;;;;2.47;0.95;;;14.20;99.90;;;13.64;100.00;99818.16;4152011;28;20033;-80
2023/12/09 07:36:17;;;;;;;3.47;0.60;;;14.10;99.90;;;13.65;100.00;99817.16;4151879;28;20072;-78
2023/12/09 07:38:18;;;;;;;4.68;1.02;;;14.20;99.90;;;13.60;100.00;99811.63;4150876;28;20057;-79
2023/12/09 07:40:19;;;;;;;2.92;0.57;;;14.20;99.90;;;13.67;100.00;99831.03;4147131;28;20099;-80
2023/12/09 07:42:20;;;;;;;5.28;0.50;;;14.20;99.90;;;13.69;100.00;99829.00;4150680;28;20033;-79
2023/12/09 07:44:21;;;;;;;3.83;0.60;;;14.20;99.90;;;13.63;100.00;99812.06;4150819;28;20028;-80
2023/12/09 07:46:22;;;;;;;2.58;0.40;;;14.20;99.90;;;13.67;100.00;99821.25;4152026;28;20044;-80
2023/12/09 07:48:22;;;;;;;2.83;0.52;;;14.20;99.90;;;13.63;100.00;99814.69;4150808;28;20033;-79
2023/12/09 07:50:23;;;;;;;2.58;0.40;;;14.20;99.90;;;13.63;100.00;99816.53;4151840;28;20105;-79
2023/12/09 07:52:24;;;;;;;3.28;0.52;;;14.20;99.90;;;13.69;100.00;99818.38;4152349;28;20025;-80
2023/12/09 07:54:25;;;;;;;4.03;0.50;;;14.20;99.90;;;13.70;100.00;99822.69;4153901;28;20401;-79
2023/12/09 07:56:26;;;;;;;3.03;0.50;;;14.20;99.90;;;13.80;100.00;99826.56;4153796;28;20025;-80
2023/12/09 07:58:27;;;;;;;2.60;0.50;;;14.20;99.90;;;13.71;100.00;99819.00;4153981;28;20026;-80
2023/12/09 08:00:27;;;;;;;2.60;0.98;;;14.20;99.90;;;13.75;100.00;99834.31;4143757;28;20023;-79
2023/12/09 08:02:28;;;;;;;4.18;0.60;;;14.20;99.90;;;13.73;100.00;99817.81;4167759;28;20026;-78
2023/12/09 08:04:30;;;;;;;2.35;0.77;;;14.20;99.90;;;13.77;100.00;99808.41;4155081;28;20024;-78
2023/12/09 08:06:31;;;;;;;3.38;1.02;;;14.30;99.90;;;13.79;100.00;99821.50;4154927;28;20030;-78
2023/12/09 08:08:31;;;;;;;1.73;0.30;;;14.30;99.90;;;13.89;100.00;99837.81;4154799;28;20440;-78
2023/12/09 08:10:32;;;;;;;2.65;0.40;;;14.30;99.90;;;13.88;100.00;99836.22;4151031;28;20026;-78
2023/12/09 08:12:33;;;;;;;3.85;0.80;;;14.30;99.90;;;13.89;100.00;99837.03;4153555;28;20547;-78
2023/12/09 08:14:34;;;;;;;3.22;0.45;;;14.40;99.90;;;13.83;100.00;99825.34;4154898;28;20040;-78
2023/12/09 08:16:35;;;;;;;2.75;0.57;;;14.30;99.90;;;13.80;100.00;99836.34;4154459;28;20057;-78
2023/12/09 08:18:36;;;;;;;3.42;0.70;;;14.30;99.90;;;13.86;100.00;99848.81;4154595;28;20022;-78
2023/12/09 08:20:36;;;;;;;6.00;1.02;;;14.30;99.90;;;13.90;100.00;99852.72;4147340;28;20026;-78
2023/12/09 08:22:41;;;;;;;3.42;0.60;;;14.30;99.90;;;13.83;100.00;99839.44;4154631;28;20022;-78